Time;durP1;ratioP1;P1;durP2;ratioP2;P2;SDS_P1;SDS_P2;PMS_P1;PMS_P2;Temp;Humidity;BMP_temperature;BMP_pressure;BME280_temperature;BME280_humidity;BME280_pressure;Samples;Min_cycle;Max_cycle;Signal;HPM_P1;HPM_P2
2022/02/25 00:00:59;;;;;;;19.95;9.90;;;;;;;;;;1746660;80;21057;-73
2022/02/25 00:03:26;;;;;;;22.40;10.82;;;;;;;;;;1754931;81;21524;-73
2022/02/25 00:05:54;;;;;;;24.07;11.55;;;;;;;;;;1754246;81;21095;-73
2022/02/25 00:08:22;;;;;;;27.52;13.32;;;;;;;;;;1749297;81;21060;-71
2022/02/25 00:10:47;;;;;;;27.95;14.10;;;;;;;;;;1747138;81;21531;-73
2022/02/25 00:13:15;;;;;;;26.10;13.90;;;;;;;;;;1715163;83;21154;-73
2022/02/25 00:15:46;;;;;;;24.30;13.28;;;;;;;;;;1702476;83;21616;-74
2022/02/25 00:18:14;;;;;;;24.87;11.20;;;;;;;;;;1683012;83;21072;-74
2022/02/25 00:20:42;;;;;;;23.67;12.15;;;;;;;;;;1694316;83;21668;-75
2022/02/25 00:23:09;;;;;;;21.17;10.63;;;;;;;;;;1716088;82;21035;-74
2022/02/25 00:25:38;;;;;;;22.98;11.12;;;;;;;;;;1692535;84;21035;-74
2022/02/25 00:28:06;;;;;;;25.17;12.13;;;;;;;;;;1728914;81;21087;-74
2022/02/25 00:30:34;;;;;;;20.32;10.25;;;;;;;;;;1719052;82;21132;-74
2022/02/25 00:33:02;;;;;;;20.43;10.23;;;;;;;;;;1719030;82;21107;-73
2022/02/25 00:35:29;;;;;;;25.27;12.30;;;;;;;;;;1723811;82;21039;-73
2022/02/25 00:37:57;;;;;;;19.90;10.10;;;;;;;;;;1707035;83;21120;-74
2022/02/25 00:40:24;;;;;;;23.42;11.57;;;;;;;;;;1720004;83;21582;-74
2022/02/25 00:42:52;;;;;;;22.22;9.55;;;;;;;;;;1679909;84;21147;-74
2022/02/25 00:45:20;;;;;;;25.57;11.50;;;;;;;;;;1704194;83;21118;-74
2022/02/25 00:47:47;;;;;;;21.48;10.50;;;;;;;;;;1692817;83;21056;-74
2022/02/25 00:50:15;;;;;;;23.12;10.50;;;;;;;;;;1706569;83;21082;-73
2022/02/25 00:52:42;;;;;;;26.60;12.28;;;;;;;;;;1698450;83;21097;-74
2022/02/25 00:55:10;;;;;;;20.57;9.48;;;;;;;;;;1695456;83;21131;-73
2022/02/25 00:57:38;;;;;;;19.07;9.83;;;;;;;;;;1685668;83;21576;-73
2022/02/25 01:00:04;;;;;;;18.30;9.23;;;;;;;;;;1696253;83;21096;-74
2022/02/25 01:02:31;;;;;;;24.02;10.75;;;;;;;;;;1693899;83;20985;-74
2022/02/25 01:04:58;;;;;;;21.15;11.05;;;;;;;;;;1690772;84;21069;-72
2022/02/25 01:07:25;;;;;;;18.60;9.48;;;;;;;;;;1694477;84;21088;-73
2022/02/25 01:09:51;;;;;;;17.92;9.55;;;;;;;;;;1688606;83;21065;-73
2022/02/25 01:12:17;;;;;;;25.12;11.48;;;;;;;;;;1698551;83;21020;-75
2022/02/25 01:14:43;;;;;;;22.35;11.93;;;;;;;;;;1692340;83;21026;-75
2022/02/25 01:17:09;;;;;;;22.45;11.63;;;;;;;;;;1698406;84;21084;-74
2022/02/25 01:19:35;;;;;;;23.38;11.60;;;;;;;;;;1701318;83;21539;-74
2022/02/25 01:22:01;;;;;;;24.45;11.15;;;;;;;;;;1689497;84;21108;-73
2022/02/25 01:24:27;;;;;;;18.70;10.35;;;;;;;;;;1680169;83;21017;-72
2022/02/25 01:26:53;;;;;;;22.17;10.72;;;;;;;;;;1685648;83;21029;-71
2022/02/25 01:29:19;;;;;;;22.13;10.23;;;;;;;;;;1691494;83;20999;-74
2022/02/25 01:31:45;;;;;;;21.95;10.80;;;;;;;;;;1680719;84;21066;-74
2022/02/25 01:34:11;;;;;;;22.98;11.38;;;;;;;;;;1690232;83;21043;-74
2022/02/25 01:36:37;;;;;;;17.70;9.15;;;;;;;;;;1697429;83;21108;-72
2022/02/25 01:39:04;;;;;;;19.62;9.93;;;;;;;;;;1695338;83;21098;-73
2022/02/25 01:41:31;;;;;;;19.30;10.65;;;;;;;;;;1697451;83;21075;-73
2022/02/25 01:44:13;;;;;;;20.00;9.93;;;;;;;;;;1687240;83;21032;-73
2022/02/25 01:46:39;;;;;;;24.23;11.83;;;;;;;;;;1719237;83;20977;-72
2022/02/25 01:49:05;;;;;;;20.10;10.82;;;;;;;;;;1716326;82;21674;-72
2022/02/25 01:51:31;;;;;;;16.27;9.33;;;;;;;;;;1716391;82;21027;-73
2022/02/25 01:53:57;;;;;;;21.62;11.75;;;;;;;;;;1721462;82;22093;-73
2022/02/25 01:56:23;;;;;;;21.57;11.43;;;;;;;;;;1713721;82;21084;-73
2022/02/25 01:58:49;;;;;;;21.37;11.15;;;;;;;;;;1713932;82;21057;-72
2022/02/25 02:04:12;;;;;;;24.60;11.57;;;;;;;;;;1712036;78;21722;-76
2022/02/25 02:06:38;;;;;;;20.68;9.25;;;;;;;;;;1702583;83;21016;-76
2022/02/25 02:09:04;;;;;;;19.30;10.95;;;;;;;;;;1690706;83;21025;-77
2022/02/25 02:11:34;;;;;;;20.85;10.25;;;;;;;;;;1708975;83;21064;-77
2022/02/25 02:14:00;;;;;;;19.70;10.40;;;;;;;;;;1696128;82;21039;-75
2022/02/25 02:16:26;;;;;;;20.57;9.73;;;;;;;;;;1709820;83;21020;-75
2022/02/25 02:18:52;;;;;;;22.50;11.88;;;;;;;;;;1701396;83;21077;-76
2022/02/25 02:21:20;;;;;;;25.23;11.83;;;;;;;;;;1713330;83;21239;-75
2022/02/25 02:23:46;;;;;;;23.52;11.85;;;;;;;;;;1711578;83;21059;-76
2022/02/25 02:26:12;;;;;;;23.65;10.98;;;;;;;;;;1703520;83;21005;-74
2022/02/25 02:28:38;;;;;;;23.07;10.88;;;;;;;;;;1704422;83;21512;-78
2022/02/25 02:31:04;;;;;;;25.68;12.05;;;;;;;;;;1702158;83;21009;-75
2022/02/25 02:33:30;;;;;;;21.60;9.83;;;;;;;;;;1706966;83;21004;-77
2022/02/25 02:35:56;;;;;;;21.10;10.35;;;;;;;;;;1676345;83;21540;-77
2022/02/25 02:38:28;;;;;;;19.30;10.78;;;;;;;;;;1682503;84;21145;-77
2022/02/25 02:40:56;;;;;;;19.23;9.45;;;;;;;;;;1653116;85;21046;-79
2022/02/25 02:43:22;;;;;;;17.23;9.48;;;;;;;;;;1654879;85;21051;-76
2022/02/25 02:45:50;;;;;;;23.07;12.40;;;;;;;;;;1721192;81;21091;-77
2022/02/25 02:48:16;;;;;;;17.82;10.25;;;;;;;;;;1718279;82;21068;-75
2022/02/25 02:50:43;;;;;;;19.57;9.83;;;;;;;;;;1671277;84;21038;-77
2022/02/25 02:53:09;;;;;;;16.87;9.10;;;;;;;;;;1706950;82;21033;-78
2022/02/25 02:55:35;;;;;;;22.07;10.78;;;;;;;;;;1700688;83;20970;-76
2022/02/25 02:58:01;;;;;;;18.15;9.83;;;;;;;;;;1707403;82;21480;-78
2022/02/25 03:00:28;;;;;;;19.62;9.40;;;;;;;;;;1706044;82;21008;-78
2022/02/25 03:02:54;;;;;;;22.10;10.58;;;;;;;;;;1702726;83;21073;-75
2022/02/25 03:05:20;;;;;;;25.60;11.68;;;;;;;;;;1687593;83;20984;-75
2022/02/25 03:07:46;;;;;;;21.60;10.88;;;;;;;;;;1689586;83;21002;-74
2022/02/25 03:10:12;;;;;;;20.00;9.95;;;;;;;;;;1691631;83;21562;-76
2022/02/25 03:12:39;;;;;;;16.97;9.28;;;;;;;;;;1685098;82;21096;-74
2022/02/25 03:15:05;;;;;;;17.87;9.60;;;;;;;;;;1679101;83;21005;-74
2022/02/25 03:17:32;;;;;;;18.40;9.60;;;;;;;;;;1683590;83;21049;-76
2022/02/25 03:19:59;;;;;;;21.65;9.55;;;;;;;;;;1688340;83;21602;-76
2022/02/25 03:22:25;;;;;;;17.80;10.55;;;;;;;;;;1684372;83;21018;-75
2022/02/25 03:24:54;;;;;;;15.93;8.48;;;;;;;;;;1686532;83;21024;-76
2022/02/25 03:27:20;;;;;;;21.37;10.72;;;;;;;;;;1682900;82;21034;-76
2022/02/25 03:29:46;;;;;;;19.95;10.45;;;;;;;;;;1687048;83;21048;-73
2022/02/25 03:32:13;;;;;;;18.32;9.28;;;;;;;;;;1692283;83;21538;-74
2022/02/25 03:34:39;;;;;;;19.75;10.13;;;;;;;;;;1693549;82;21031;-75
2022/02/25 03:37:05;;;;;;;20.70;9.95;;;;;;;;;;1679065;82;21013;-76
2022/02/25 03:39:32;;;;;;;20.30;9.43;;;;;;;;;;1691862;83;21169;-76
2022/02/25 03:41:58;;;;;;;20.00;10.25;;;;;;;;;;1696585;82;21076;-76
2022/02/25 03:44:24;;;;;;;19.10;9.23;;;;;;;;;;1689330;83;21068;-74
2022/02/25 03:46:51;;;;;;;21.33;10.25;;;;;;;;;;1689635;83;21123;-74
2022/02/25 03:49:17;;;;;;;24.98;11.57;;;;;;;;;;1690923;82;21017;-73
2022/02/25 03:51:44;;;;;;;21.10;10.95;;;;;;;;;;1697977;83;21077;-73
2022/02/25 03:54:10;;;;;;;20.62;10.45;;;;;;;;;;1685231;83;22211;-74
2022/02/25 03:56:36;;;;;;;21.33;10.58;;;;;;;;;;1694857;83;21156;-74
2022/02/25 03:59:01;;;;;;;23.12;12.43;;;;;;;;;;1684428;82;21092;-74
2022/02/25 04:01:28;;;;;;;17.85;9.23;;;;;;;;;;1679010;83;21111;-74
2022/02/25 04:03:54;;;;;;;17.00;10.15;;;;;;;;;;1691450;83;21088;-73
2022/02/25 04:06:20;;;;;;;18.70;9.93;;;;;;;;;;1687345;82;21075;-75
2022/02/25 04:08:46;;;;;;;24.32;10.48;;;;;;;;;;1687853;82;21084;-74
2022/02/25 04:11:12;;;;;;;20.40;9.08;;;;;;;;;;1685039;83;21326;-74
2022/02/25 04:13:38;;;;;;;20.00;10.50;;;;;;;;;;1690926;83;21598;-74
2022/02/25 04:16:04;;;;;;;18.20;9.68;;;;;;;;;;1686242;83;21073;-75
2022/02/25 04:18:30;;;;;;;23.27;11.57;;;;;;;;;;1679366;84;21053;-76
2022/02/25 04:20:55;;;;;;;21.77;10.20;;;;;;;;;;1689936;82;21022;-75
2022/02/25 04:23:21;;;;;;;19.05;10.58;;;;;;;;;;1681373;82;21599;-73
2022/02/25 04:25:47;;;;;;;19.30;9.80;;;;;;;;;;1652735;85;20999;-75
2022/02/25 04:28:13;;;;;;;18.42;9.08;;;;;;;;;;1648300;86;21007;-76
2022/02/25 04:30:39;;;;;;;23.15;11.65;;;;;;;;;;1641649;84;21045;-76
2022/02/25 04:33:05;;;;;;;20.50;10.58;;;;;;;;;;1655176;86;21552;-74
2022/02/25 04:35:31;;;;;;;22.60;10.23;;;;;;;;;;1659150;85;21187;-73
2022/02/25 04:37:57;;;;;;;17.00;9.98;;;;;;;;;;1691275;83;21063;-73
2022/02/25 04:40:23;;;;;;;19.55;9.30;;;;;;;;;;1680714;83;21179;-75
2022/02/25 04:42:49;;;;;;;22.30;11.57;;;;;;;;;;1682213;83;21005;-77
2022/02/25 04:45:15;;;;;;;21.65;10.43;;;;;;;;;;1684405;84;21056;-76
2022/02/25 04:47:41;;;;;;;18.90;10.03;;;;;;;;;;1703407;82;20997;-74
2022/02/25 04:50:07;;;;;;;17.98;8.45;;;;;;;;;;1696710;83;21096;-75
2022/02/25 04:52:34;;;;;;;19.65;9.15;;;;;;;;;;1691987;83;21536;-75
2022/02/25 04:55:00;;;;;;;22.48;11.93;;;;;;;;;;1684839;83;21040;-74
2022/02/25 04:57:26;;;;;;;22.98;10.78;;;;;;;;;;1680779;84;21080;-76
2022/02/25 04:59:53;;;;;;;19.85;10.28;;;;;;;;;;1692461;83;21084;-76
2022/02/25 05:02:18;;;;;;;22.27;10.95;;;;;;;;;;1686222;83;21064;-74
2022/02/25 05:04:44;;;;;;;19.52;10.23;;;;;;;;;;1684493;83;21006;-76
2022/02/25 05:07:11;;;;;;;19.00;9.23;;;;;;;;;;1693642;82;21055;-77
2022/02/25 05:09:37;;;;;;;18.50;9.10;;;;;;;;;;1685659;83;21025;-75
2022/02/25 05:12:03;;;;;;;20.80;10.28;;;;;;;;;;1689076;82;21134;-78
2022/02/25 05:20:16;;;;;;;24.95;11.53;;;;;;;;;;1692356;82;21056;-75
2022/02/25 05:22:41;;;;;;;;;;;;;;;;;;1682062;83;21115;-76
2022/02/25 05:25:08;;;;;;;17.02;8.95;;;;;;;;;;1685862;83;20886;-75
2022/02/25 05:27:33;;;;;;;20.70;10.82;;;;;;;;;;1705029;82;21083;-78
2022/02/25 05:29:59;;;;;;;25.10;12.75;;;;;;;;;;1678452;83;21003;-77
2022/02/25 05:32:26;;;;;;;25.25;13.55;;;;;;;;;;1681735;82;21519;-75
2022/02/25 05:34:52;;;;;;;21.07;10.30;;;;;;;;;;1678580;83;21097;-75
2022/02/25 05:37:18;;;;;;;19.65;10.82;;;;;;;;;;1675030;84;21005;-75
2022/02/25 05:39:44;;;;;;;22.77;12.07;;;;;;;;;;1674372;82;21064;-74
2022/02/25 05:42:10;;;;;;;16.95;9.00;;;;;;;;;;1701616;82;21029;-73
2022/02/25 05:44:36;;;;;;;17.32;9.58;;;;;;;;;;1684106;83;21088;-74
2022/02/25 05:47:02;;;;;;;20.90;11.60;;;;;;;;;;1683266;83;21077;-76
2022/02/25 05:49:29;;;;;;;17.82;10.43;;;;;;;;;;1680610;83;21041;-74
2022/02/25 05:51:55;;;;;;;20.10;10.78;;;;;;;;;;1694427;83;21040;-74
2022/02/25 05:54:21;;;;;;;24.10;11.90;;;;;;;;;;1689970;83;21501;-75
2022/02/25 05:56:47;;;;;;;20.12;10.20;;;;;;;;;;1690726;83;20973;-73
2022/02/25 05:59:13;;;;;;;22.32;11.18;;;;;;;;;;1672396;82;21238;-73
2022/02/25 06:01:41;;;;;;;19.73;9.93;;;;;;;;;;1677416;83;21198;-74
2022/02/25 06:04:07;;;;;;;19.62;10.80;;;;;;;;;;1692014;82;21044;-74
2022/02/25 06:06:33;;;;;;;23.95;11.83;;;;;;;;;;1690423;83;21734;-74
2022/02/25 06:08:59;;;;;;;17.67;9.15;;;;;;;;;;1681498;83;21093;-71
2022/02/25 06:11:25;;;;;;;19.05;9.83;;;;;;;;;;1687488;81;21077;-74
2022/02/25 06:13:51;;;;;;;19.75;9.43;;;;;;;;;;1686158;82;21056;-73
2022/02/25 06:16:17;;;;;;;20.68;10.43;;;;;;;;;;1678887;82;21046;-74
2022/02/25 06:18:43;;;;;;;21.55;10.18;;;;;;;;;;1686351;83;20996;-75
2022/02/25 06:21:09;;;;;;;22.67;11.10;;;;;;;;;;1695992;82;21028;-75
2022/02/25 06:23:35;;;;;;;22.70;11.78;;;;;;;;;;1684249;83;21076;-73
2022/02/25 06:26:01;;;;;;;22.73;10.68;;;;;;;;;;1689942;83;21000;-74
2022/02/25 06:28:27;;;;;;;21.37;10.58;;;;;;;;;;1680849;83;21560;-73
2022/02/25 06:30:55;;;;;;;22.35;12.95;;;;;;;;;;1690609;83;21009;-73
2022/02/25 06:33:21;;;;;;;21.40;11.48;;;;;;;;;;1682882;83;21024;-74
2022/02/25 06:35:48;;;;;;;23.62;11.65;;;;;;;;;;1674454;83;21062;-72
2022/02/25 06:38:15;;;;;;;20.85;11.63;;;;;;;;;;1678237;83;21127;-74
2022/02/25 06:40:41;;;;;;;18.73;10.20;;;;;;;;;;1688739;83;21022;-72
2022/02/25 06:43:07;;;;;;;20.55;10.45;;;;;;;;;;1694279;82;21009;-74
2022/02/25 06:45:33;;;;;;;24.23;11.53;;;;;;;;;;1682636;83;21608;-74
2022/02/25 06:47:59;;;;;;;20.45;12.63;;;;;;;;;;1688499;83;21424;-77
2022/02/25 06:50:24;;;;;;;19.98;11.43;;;;;;;;;;1674090;84;21049;-76
2022/02/25 06:52:50;;;;;;;22.02;12.53;;;;;;;;;;1694515;82;21037;-75
2022/02/25 06:55:16;;;;;;;24.05;12.07;;;;;;;;;;1702394;82;21048;-76
2022/02/25 06:57:47;;;;;;;19.32;10.93;;;;;;;;;;1687087;83;21066;-78
2022/02/25 07:00:21;;;;;;;24.32;12.93;;;;;;;;;;1700277;82;21033;-77
2022/02/25 07:02:42;;;;;;;22.55;12.95;;;;;;;;;;1677758;83;21038;-74
2022/02/25 07:05:08;;;;;;;23.10;11.38;;;;;;;;;;1682134;83;21013;-74
2022/02/25 07:07:34;;;;;;;22.75;12.05;;;;;;;;;;1679838;83;21037;-75
2022/02/25 07:10:00;;;;;;;21.10;12.25;;;;;;;;;;1692206;82;21845;-76
2022/02/25 07:12:26;;;;;;;23.92;13.68;;;;;;;;;;1694903;82;21014;-76
2022/02/25 07:14:53;;;;;;;20.88;10.78;;;;;;;;;;1700503;82;21710;-77
2022/02/25 07:17:19;;;;;;;25.57;12.93;;;;;;;;;;1687578;82;21088;-74
2022/02/25 07:19:45;;;;;;;20.88;10.80;;;;;;;;;;1693407;83;21028;-73
2022/02/25 07:22:11;;;;;;;24.77;13.53;;;;;;;;;;1689190;83;21044;-76
2022/02/25 07:24:36;;;;;;;26.12;14.25;;;;;;;;;;1692246;83;21083;-77
2022/02/25 07:27:02;;;;;;;25.40;13.03;;;;;;;;;;1699549;82;21075;-77
2022/02/25 07:29:29;;;;;;;23.20;12.03;;;;;;;;;;1679001;83;21081;-82
2022/02/25 07:31:55;;;;;;;20.57;11.30;;;;;;;;;;1672245;83;21599;-80
2022/02/25 07:34:22;;;;;;;21.93;10.88;;;;;;;;;;1686575;83;21113;-79
2022/02/25 07:36:48;;;;;;;19.02;11.28;;;;;;;;;;1700091;82;21135;-80
2022/02/25 07:39:15;;;;;;;23.77;12.82;;;;;;;;;;1699653;83;21042;-83
2022/02/25 07:41:41;;;;;;;23.45;14.23;;;;;;;;;;1695469;83;20988;-78
2022/02/25 07:44:07;;;;;;;24.80;12.55;;;;;;;;;;1692456;83;21030;-77
2022/02/25 07:46:33;;;;;;;16.45;8.98;;;;;;;;;;1696631;83;21047;-76
2022/02/25 07:48:59;;;;;;;20.57;11.90;;;;;;;;;;1691348;83;21084;-77
2022/02/25 07:51:27;;;;;;;21.97;11.97;;;;;;;;;;1699111;83;21017;-77
2022/02/25 07:53:53;;;;;;;19.02;10.93;;;;;;;;;;1694324;82;21045;-77
2022/02/25 07:56:19;;;;;;;17.27;10.28;;;;;;;;;;1694443;84;21056;-77
2022/02/25 07:58:45;;;;;;;22.70;13.13;;;;;;;;;;1695126;84;21020;-77
2022/02/25 08:01:13;;;;;;;18.90;11.18;;;;;;;;;;1691116;83;21041;-78
2022/02/25 08:03:42;;;;;;;20.92;11.65;;;;;;;;;;1688383;82;21148;-76
2022/02/25 08:06:08;;;;;;;17.32;8.93;;;;;;;;;;1692470;82;21052;-75
2022/02/25 08:08:34;;;;;;;17.37;10.55;;;;;;;;;;1694451;83;21579;-78
2022/02/25 08:11:00;;;;;;;15.75;8.85;;;;;;;;;;1688552;83;21040;-78
2022/02/25 08:13:27;;;;;;;20.57;12.65;;;;;;;;;;1699247;82;21044;-76
2022/02/25 08:15:52;;;;;;;18.67;10.38;;;;;;;;;;1690978;83;21002;-79
2022/02/25 08:18:18;;;;;;;18.73;9.68;;;;;;;;;;1700360;83;21008;-77
2022/02/25 08:20:45;;;;;;;21.17;12.07;;;;;;;;;;1691037;83;21592;-77
2022/02/25 08:23:14;;;;;;;20.88;10.35;;;;;;;;;;1692870;82;21520;-78
2022/02/25 08:25:40;;;;;;;18.80;10.58;;;;;;;;;;1679878;83;21033;-78
2022/02/25 08:28:07;;;;;;;18.45;10.15;;;;;;;;;;1686350;84;21029;-79
2022/02/25 08:30:33;;;;;;;19.75;11.12;;;;;;;;;;1696899;83;21551;-77
2022/02/25 08:33:02;;;;;;;15.90;8.58;;;;;;;;;;1695270;84;21095;-77
2022/02/25 08:35:29;;;;;;;20.55;11.65;;;;;;;;;;1678984;84;21108;-77
2022/02/25 08:37:55;;;;;;;19.15;10.55;;;;;;;;;;1693599;83;21019;-79
2022/02/25 08:40:23;;;;;;;17.45;9.60;;;;;;;;;;1685381;83;21559;-77
2022/02/25 08:42:49;;;;;;;14.30;9.78;;;;;;;;;;1688109;83;21530;-79
2022/02/25 08:45:15;;;;;;;15.83;8.40;;;;;;;;;;1691993;83;20997;-81
2022/02/25 08:47:42;;;;;;;17.90;9.95;;;;;;;;;;1697050;82;20957;-80
2022/02/25 08:50:08;;;;;;;16.37;8.88;;;;;;;;;;1693277;83;21025;-80
2022/02/25 08:52:34;;;;;;;10.80;6.10;;;;;;;;;;1697873;83;21084;-79
2022/02/25 08:55:00;;;;;;;13.53;7.95;;;;;;;;;;1701052;83;21075;-78
2022/02/25 08:57:27;;;;;;;12.73;7.70;;;;;;;;;;1687362;83;21008;-80
2022/02/25 08:59:53;;;;;;;14.25;7.87;;;;;;;;;;1691254;84;21044;-80
2022/02/25 09:02:19;;;;;;;14.40;9.78;;;;;;;;;;1695095;84;21096;-79
2022/02/25 09:04:45;;;;;;;11.38;6.58;;;;;;;;;;1686947;84;21024;-78
2022/02/25 09:07:13;;;;;;;12.45;6.83;;;;;;;;;;1691057;84;21069;-77
2022/02/25 09:09:40;;;;;;;13.40;7.37;;;;;;;;;;1691572;84;21079;-76
2022/02/25 09:12:07;;;;;;;9.60;6.65;;;;;;;;;;1692106;84;21477;-79
2022/02/25 09:14:34;;;;;;;9.20;5.25;;;;;;;;;;1676504;84;21071;-76
2022/02/25 09:17:00;;;;;;;12.03;6.35;;;;;;;;;;1695281;84;21572;-77
2022/02/25 09:19:26;;;;;;;11.57;5.70;;;;;;;;;;1668791;85;21013;-76
2022/02/25 09:21:52;;;;;;;9.35;6.12;;;;;;;;;;1692935;83;21590;-77
2022/02/25 09:24:21;;;;;;;9.80;5.05;;;;;;;;;;1672636;83;21104;-76
2022/02/25 09:26:47;;;;;;;9.13;4.92;;;;;;;;;;1691286;84;21009;-76
2022/02/25 09:29:13;;;;;;;9.58;5.33;;;;;;;;;;1685735;84;21005;-76
2022/02/25 09:31:39;;;;;;;9.00;5.55;;;;;;;;;;1688633;84;21623;-77
2022/02/25 09:34:05;;;;;;;9.50;6.35;;;;;;;;;;1686079;84;21054;-76
2022/02/25 09:36:33;;;;;;;8.88;4.65;;;;;;;;;;1696734;83;21029;-76
2022/02/25 09:38:59;;;;;;;9.40;5.35;;;;;;;;;;1682307;84;21059;-78
2022/02/25 09:41:25;;;;;;;10.60;6.53;;;;;;;;;;1683977;84;21159;-77
2022/02/25 09:43:54;;;;;;;9.13;4.65;;;;;;;;;;1679406;84;21014;-78
2022/02/25 09:46:19;;;;;;;9.40;6.08;;;;;;;;;;1685970;84;21057;-78
2022/02/25 09:48:45;;;;;;;8.55;4.60;;;;;;;;;;1682237;84;21074;-77
2022/02/25 09:51:11;;;;;;;7.55;4.50;;;;;;;;;;1689357;84;21045;-76
2022/02/25 09:53:38;;;;;;;7.33;4.67;;;;;;;;;;1683481;84;21108;-73
2022/02/25 09:56:04;;;;;;;9.50;5.90;;;;;;;;;;1689531;84;21049;-76
2022/02/25 09:58:30;;;;;;;10.55;5.60;;;;;;;;;;1698240;82;21076;-75
2022/02/25 10:00:56;;;;;;;10.08;5.80;;;;;;;;;;1682685;84;21084;-76
2022/02/25 10:03:23;;;;;;;9.00;5.33;;;;;;;;;;1693042;82;21005;-77
2022/02/25 10:05:49;;;;;;;11.43;6.20;;;;;;;;;;1688463;83;21544;-77
2022/02/25 10:08:19;;;;;;;9.38;5.78;;;;;;;;;;1695680;84;20982;-75
2022/02/25 10:10:55;;;;;;;10.20;6.25;;;;;;;;;;1669886;84;20997;-76
2022/02/25 10:13:22;;;;;;;8.45;4.62;;;;;;;;;;1679400;84;21080;-76
2022/02/25 10:15:49;;;;;;;11.05;6.25;;;;;;;;;;1678767;82;21089;-77
2022/02/25 10:18:16;;;;;;;9.78;5.40;;;;;;;;;;1683097;83;21485;-77
2022/02/25 10:20:43;;;;;;;8.68;4.60;;;;;;;;;;1689425;83;21548;-76
2022/02/25 10:23:26;;;;;;;7.22;4.25;;;;;;;;;;1688419;83;21032;-74
2022/02/25 10:25:52;;;;;;;8.43;5.10;;;;;;;;;;1686957;84;21001;-75
2022/02/25 10:28:25;;;;;;;8.15;4.92;;;;;;;;;;1687219;84;21068;-77
2022/02/25 10:30:52;;;;;;;10.03;6.58;;;;;;;;;;1662043;85;21068;-76
2022/02/25 10:33:18;;;;;;;10.75;5.47;;;;;;;;;;1673961;84;21016;-76
2022/02/25 10:35:44;;;;;;;7.40;4.45;;;;;;;;;;1690808;84;21685;-74
2022/02/25 10:38:12;;;;;;;7.75;5.30;;;;;;;;;;1680024;84;20978;-76
2022/02/25 10:40:40;;;;;;;8.70;5.12;;;;;;;;;;1688810;84;21079;-75
2022/02/25 10:43:10;;;;;;;9.58;6.05;;;;;;;;;;1680687;84;21001;-75
2022/02/25 10:45:38;;;;;;;11.10;6.03;;;;;;;;;;1696774;84;21088;-76
2022/02/25 10:48:12;;;;;;;9.75;5.33;;;;;;;;;;1696569;84;21001;-77
2022/02/25 10:50:49;;;;;;;8.80;4.62;;;;;;;;;;1690080;83;21049;-75
2022/02/25 10:53:18;;;;;;;8.48;5.00;;;;;;;;;;1686137;84;21053;-76
2022/02/25 10:55:48;;;;;;;7.28;5.00;;;;;;;;;;1685524;84;21048;-74
2022/02/25 10:58:14;;;;;;;8.70;4.85;;;;;;;;;;1684267;84;21049;-75
2022/02/25 11:00:41;;;;;;;9.45;5.75;;;;;;;;;;1685274;84;21108;-75
2022/02/25 11:03:07;;;;;;;10.00;4.92;;;;;;;;;;1692434;84;21548;-76
2022/02/25 11:05:34;;;;;;;9.53;5.72;;;;;;;;;;1682367;84;21119;-73
2022/02/25 11:08:00;;;;;;;9.00;5.40;;;;;;;;;;1682978;84;21005;-73
2022/02/25 11:10:28;;;;;;;8.63;4.60;;;;;;;;;;1681726;84;21021;-73
2022/02/25 11:12:54;;;;;;;7.10;4.30;;;;;;;;;;1694345;84;21045;-74
2022/02/25 11:15:21;;;;;;;11.30;6.22;;;;;;;;;;1687025;84;21061;-74
2022/02/25 11:20:36;;;;;;;6.97;4.42;;;;;;;;;;1722581;81;21039;-77
2022/02/25 11:23:05;;;;;;;8.58;5.20;;;;;;;;;;1721520;80;21084;-76
2022/02/25 11:25:33;;;;;;;9.60;6.35;;;;;;;;;;1711347;82;21055;-76
2022/02/25 11:27:59;;;;;;;8.78;5.30;;;;;;;;;;1718183;81;21115;-77
2022/02/25 11:30:38;;;;;;;9.08;5.00;;;;;;;;;;1712523;82;21016;-76
2022/02/25 11:33:11;;;;;;;8.73;4.67;;;;;;;;;;1693980;82;21164;-76
2022/02/25 11:35:40;;;;;;;8.18;4.85;;;;;;;;;;1704093;81;22406;-75
2022/02/25 11:38:06;;;;;;;10.82;5.37;;;;;;;;;;1701355;82;21023;-75
2022/02/25 11:40:51;;;;;;;9.88;5.08;;;;;;;;;;1669832;81;21105;-76
2022/02/25 11:43:19;;;;;;;9.90;5.05;;;;;;;;;;1690105;82;21626;-76
2022/02/25 11:45:48;;;;;;;8.88;5.08;;;;;;;;;;1748436;79;21103;-77
2022/02/25 11:48:19;;;;;;;7.87;4.85;;;;;;;;;;1731638;80;21009;-76
2022/02/25 11:50:47;;;;;;;10.58;5.58;;;;;;;;;;1707802;81;21031;-76
2022/02/25 11:53:17;;;;;;;12.63;7.47;;;;;;;;;;1737028;80;21557;-75
2022/02/25 11:55:44;;;;;;;10.58;5.65;;;;;;;;;;1738139;78;21032;-76
2022/02/25 11:58:28;;;;;;;9.68;5.00;;;;;;;;;;1726775;80;21075;-75
2022/02/25 12:01:04;;;;;;;7.20;4.58;;;;;;;;;;1750010;79;21008;-75
2022/02/25 12:05:12;;;;;;;7.53;4.22;;;;;;;;;;1798553;78;22895;-75
2022/02/25 12:07:40;;;;;;;9.13;5.20;;;;;;;;;;1742800;81;21525;-74
2022/02/25 12:10:15;;;;;;;7.78;4.75;;;;;;;;;;1757122;80;21042;-75
2022/02/25 12:12:45;;;;;;;8.05;4.17;;;;;;;;;;1758751;80;21049;-76
2022/02/25 12:15:12;;;;;;;7.80;4.40;;;;;;;;;;1757294;80;21035;-76
2022/02/25 12:17:39;;;;;;;7.12;4.78;;;;;;;;;;1752236;80;21060;-76
2022/02/25 12:20:10;;;;;;;8.55;4.67;;;;;;;;;;1726049;83;21036;-75
2022/02/25 12:22:56;;;;;;;6.58;4.25;;;;;;;;;;1711646;83;21484;-76
2022/02/25 12:25:42;;;;;;;6.15;4.12;;;;;;;;;;1691829;84;21741;-74
2022/02/25 12:28:13;;;;;;;6.30;3.90;;;;;;;;;;1710482;83;21041;-76
2022/02/25 12:30:43;;;;;;;6.67;3.65;;;;;;;;;;1709120;83;21329;-76
2022/02/25 12:33:28;;;;;;;7.35;4.30;;;;;;;;;;1707746;83;21041;-75
2022/02/25 12:35:56;;;;;;;8.93;4.97;;;;;;;;;;1711166;83;20962;-76
2022/02/25 12:38:23;;;;;;;6.42;3.90;;;;;;;;;;1713838;82;21068;-75
2022/02/25 12:40:52;;;;;;;6.05;3.58;;;;;;;;;;1708235;83;21061;-76
2022/02/25 12:43:18;;;;;;;5.45;3.67;;;;;;;;;;1714401;83;21069;-77
2022/02/25 12:45:46;;;;;;;6.83;4.28;;;;;;;;;;1711134;82;21012;-77
2022/02/25 12:48:11;;;;;;;8.08;5.28;;;;;;;;;;1706958;82;21040;-75
2022/02/25 12:50:41;;;;;;;8.25;4.70;;;;;;;;;;1710882;83;21005;-76
2022/02/25 12:53:07;;;;;;;8.58;3.75;;;;;;;;;;1717353;83;21029;-76
2022/02/25 12:55:33;;;;;;;6.90;4.00;;;;;;;;;;1719089;83;21012;-75
2022/02/25 12:57:59;;;;;;;9.35;5.53;;;;;;;;;;1723791;81;21031;-74
2022/02/25 13:00:25;;;;;;;7.90;4.37;;;;;;;;;;1710698;83;21088;-73
2022/02/25 13:02:55;;;;;;;6.33;3.77;;;;;;;;;;1710364;83;21041;-74
2022/02/25 13:05:21;;;;;;;5.10;3.58;;;;;;;;;;1704711;83;21441;-74
2022/02/25 13:07:56;;;;;;;7.00;4.55;;;;;;;;;;1697631;83;21062;-75
2022/02/25 13:10:25;;;;;;;6.28;3.95;;;;;;;;;;1744794;80;21032;-73
2022/02/25 13:12:51;;;;;;;6.67;3.77;;;;;;;;;;1743887;81;21531;-74
2022/02/25 13:15:19;;;;;;;6.92;3.45;;;;;;;;;;1746643;81;21085;-75
2022/02/25 13:17:45;;;;;;;7.05;4.00;;;;;;;;;;1745765;81;21151;-75
2022/02/25 13:20:12;;;;;;;6.35;4.45;;;;;;;;;;1749765;80;21025;-74
2022/02/25 13:22:40;;;;;;;11.78;6.50;;;;;;;;;;1748478;81;20977;-75
2022/02/25 13:25:10;;;;;;;6.80;3.70;;;;;;;;;;1761753;80;20978;-74
2022/02/25 13:27:41;;;;;;;7.55;4.50;;;;;;;;;;1752891;81;21018;-75
2022/02/25 13:30:11;;;;;;;8.18;4.60;;;;;;;;;;1742363;81;20983;-73
2022/02/25 13:32:37;;;;;;;8.75;5.50;;;;;;;;;;1731581;81;21168;-76
2022/02/25 13:35:03;;;;;;;8.80;4.28;;;;;;;;;;1734401;81;21040;-75
2022/02/25 13:37:29;;;;;;;5.97;3.75;;;;;;;;;;1753026;80;21041;-75
2022/02/25 13:39:55;;;;;;;6.53;4.17;;;;;;;;;;1754355;80;21044;-78
2022/02/25 13:42:32;;;;;;;7.35;5.58;;;;;;;;;;1747720;81;21037;-74
2022/02/25 13:44:58;;;;;;;7.47;4.37;;;;;;;;;;1738807;81;21056;-74
2022/02/25 13:52:56;;;;;;;5.72;3.70;;;;;;;;;;1741064;80;21012;-74
2022/02/25 13:55:23;;;;;;;8.70;4.58;;;;;;;;;;1739796;80;21087;-73
2022/02/25 13:57:52;;;;;;;7.22;4.03;;;;;;;;;;1745625;80;21041;-75
2022/02/25 14:00:19;;;;;;;7.78;5.10;;;;;;;;;;1742375;80;20985;-75
2022/02/25 14:02:49;;;;;;;7.40;4.50;;;;;;;;;;1742087;80;21049;-74
2022/02/25 14:05:14;;;;;;;7.97;4.28;;;;;;;;;;1751185;80;21540;-75
2022/02/25 14:07:42;;;;;;;9.48;5.20;;;;;;;;;;1752436;81;21480;-79
2022/02/25 14:10:11;;;;;;;7.95;4.45;;;;;;;;;;1754142;81;21064;-77
2022/02/25 14:12:44;;;;;;;10.63;5.67;;;;;;;;;;1753396;80;21570;-76
2022/02/25 14:15:11;;;;;;;7.63;4.13;;;;;;;;;;1760686;80;20999;-75
2022/02/25 14:17:37;;;;;;;7.60;4.15;;;;;;;;;;1757550;80;21396;-75
2022/02/25 14:20:07;;;;;;;7.05;4.60;;;;;;;;;;1756208;80;20992;-75
2022/02/25 14:22:34;;;;;;;6.72;3.65;;;;;;;;;;1760608;81;21027;-76
2022/02/25 14:25:00;;;;;;;8.08;4.22;;;;;;;;;;1762820;81;21526;-74
2022/02/25 14:27:27;;;;;;;14.07;6.80;;;;;;;;;;1760750;81;21016;-74
2022/02/25 14:29:59;;;;;;;22.40;9.55;;;;;;;;;;1755985;81;21070;-75
2022/02/25 14:32:25;;;;;;;22.58;8.88;;;;;;;;;;1756253;81;21040;-78
2022/02/25 14:34:51;;;;;;;9.68;5.42;;;;;;;;;;1758832;80;21087;-76
2022/02/25 14:37:20;;;;;;;13.13;6.72;;;;;;;;;;1756465;81;21028;-74
2022/02/25 14:39:46;;;;;;;11.73;5.95;;;;;;;;;;1756925;81;21017;-76
2022/02/25 14:42:12;;;;;;;11.73;5.92;;;;;;;;;;1757247;80;21036;-74
2022/02/25 14:44:38;;;;;;;10.40;5.40;;;;;;;;;;1764348;80;20949;-77
2022/02/25 14:47:04;;;;;;;7.78;4.03;;;;;;;;;;1764904;80;21105;-77